Airport View

Enter AWOS ICAO identifier for current METAR.

ex. KFNL

K96D 171210Z AUTO 33006KT 10SM OVC014 M03/M02 A2995 RMK AO2

17 Nov 2019 12:07

Frequency: 118.175

Phone: 701-549-3402

Other Area AWOS: K2C8 - CXMD - KD55 - CXDW

TAF AMD CYPG 152307Z 1518/1606 FCST CNCLD DUE END OF FLYING PROGRAM RMK NXT FCST WILL BE ISSUED AT 181315Z